Date,TemperatureHighF,TemperatureAvgF,TemperatureLowF,DewpointHighF,DewpointAvgF,DewpointLowF,HumidityHigh,HumidityAvg,HumidityLow,PressureMaxIn,PressureMinIn,WindSpeedMaxMPH,WindSpeedAvgMPH,GustSpeedMaxMPH,PrecipitationSumIn
2013-2-1,23.3,16.1,9.6,9.0,2.3,-3.0,68,54,42,30.39,29.90,16,5,21,0.00
2013-2-2,23.5,16.1,7.1,8.5,3.3,-5.0,69,56,52,30.39,30.16,13,5,17,0.00
2013-2-3,30.2,15.1,1.4,16.4,0.5,-10.0,81,52,33,30.23,30.00,9,2,13,0.00
2013-2-4,29.6,16.3,9.1,11.4,4.0,-3.0,75,58,45,30.20,30.06,9,3,15,0.00
2013-2-5,28.0,19.2,7.1,16.0,4.2,-5.0,71,51,43,30.22,30.01,8,2,11,0.00
2013-2-6,28.2,21.9,14.9,21.3,6.5,-2.0,87,52,31,30.60,30.07,12,4,17,0.00
2013-2-7,25.5,19.3,17.0,17.1,11.1,2.2,83,71,51,30.60,30.32,13,6,19,0.00
2013-2-8,19.5,16.9,13.6,16.4,11.1,5.3,88,78,69,30.42,30.14,11,6,20,0.00
2013-2-9,34.5,18.1,8.9,13.0,4.9,0.1,69,57,37,30.65,30.42,9,3,17,0.00
2013-2-10,40.1,23.2,3.2,27.8,12.0,-5.0,85,63,30,30.65,30.15,10,4,13,0.37
2013-2-11,48.5,36.5,31.4,46.5,30.2,22.9,98,79,47,30.15,29.69,14,6,16,0.28
2013-2-12,38.6,33.0,29.8,27.8,20.2,16.7,77,59,45,30.15,29.87,15,8,26,0.04
2013-2-13,39.3,29.8,17.7,19.8,15.0,9.9,72,54,41,30.09,29.93,8,3,11,0.00
2013-2-14,38.1,30.3,17.0,33.8,24.9,9.7,98,81,56,30.09,29.90,7,2,11,0.09
2013-2-15,35.2,28.8,16.8,34.0,17.4,7.1,98,63,42,30.32,29.87,16,7,23,0.00
2013-2-16,35.0,20.8,10.5,19.3,12.1,2.1,83,70,46,30.31,30.17,7,2,11,0.00
2013-2-17,21.5,9.8,-2.0,4.2,-4.4,-13.0,64,52,38,30.47,30.21,11,4,17,0.04
2013-2-18,35.7,18.9,-2.0,21.0,2.6,-19.0,72,49,36,30.52,30.06,11,3,14,0.00
2013-2-19,40.6,32.3,23.5,36.8,25.9,12.2,98,78,60,30.06,29.68,14,7,21,0.08
2013-2-20,25.3,20.6,17.2,12.6,7.3,4.3,80,56,45,30.29,29.95,15,8,25,0.00
2013-2-21,30.0,16.9,5.3,11.9,4.2,-5.0,72,57,44,30.66,30.26,12,5,17,0.00
2013-2-22,33.2,25.5,10.9,32.7,19.9,2.7,98,79,64,30.61,30.15,17,6,24,0.00
2013-2-23,39.2,32.9,23.5,33.6,26.7,18.2,98,79,53,30.14,30.05,11,2,14,0.00
2013-2-24,36.1,30.8,25.5,27.9,23.5,19.9,92,75,58,30.30,30.06,10,3,15,0.04
2013-2-25,38.8,33.4,30.0,25.9,22.3,19.7,79,64,50,30.45,30.30,6,2,8,0.00
2013-2-26,42.9,35.6,28.4,32.5,23.9,19.0,98,63,44,30.42,30.02,17,8,26,0.04
2013-2-27,37.0,33.9,32.7,33.7,32.5,31.7,98,95,85,29.99,29.78,14,6,23,0.58
2013-2-28,43.7,34.6,29.6,35.3,30.5,23.0,98,86,58,30.03,29.72,9,3,14,0.38